Time;durP1;ratioP1;P1;durP2;ratioP2;P2;SDS_P1;SDS_P2;PMS_P1;PMS_P2;Temp;Humidity;BMP_temperature;BMP_pressure;BME280_temperature;BME280_humidity;BME280_pressure;Samples;Min_cycle;Max_cycle;Signal;HPM_P1;HPM_P2
2021/04/18 00:01:34;;;;;;;32.22;17.95;;;6.70;99.90;;;;;;4893381;28;20103;-69
2021/04/18 00:04:00;;;;;;;27.25;14.70;;;6.70;99.90;;;;;;4893561;29;20060;-69
2021/04/18 00:06:26;;;;;;;27.95;15.05;;;6.60;99.90;;;;;;4892122;28;20031;-68
2021/04/18 00:08:52;;;;;;;29.95;14.93;;;6.60;99.90;;;;;;4893360;28;20040;-69
2021/04/18 00:11:18;;;;;;;20.15;13.43;;;6.60;99.90;;;;;;4893172;28;20025;-69
2021/04/18 00:13:44;;;;;;;25.80;13.73;;;6.60;99.90;;;;;;4893324;28;20036;-69
2021/04/18 00:16:10;;;;;;;23.35;13.20;;;6.60;99.90;;;;;;4893309;28;20028;-69
2021/04/18 00:18:35;;;;;;;20.63;12.68;;;6.60;99.90;;;;;;4892018;29;20060;-69
2021/04/18 00:21:01;;;;;;;23.58;14.25;;;6.60;99.90;;;;;;4893284;29;20055;-69
2021/04/18 00:23:27;;;;;;;22.85;13.20;;;6.60;99.90;;;;;;4892654;28;20622;-69
2021/04/18 00:25:53;;;;;;;23.88;13.95;;;6.70;99.90;;;;;;4891999;29;20032;-69
2021/04/18 00:28:18;;;;;;;25.23;13.90;;;6.80;99.90;;;;;;4893021;28;20033;-69
2021/04/18 00:30:44;;;;;;;26.50;14.10;;;6.80;99.90;;;;;;4893176;29;20533;-69
2021/04/18 00:33:10;;;;;;;26.63;14.30;;;6.80;99.90;;;;;;4892917;29;20032;-69
2021/04/18 00:35:35;;;;;;;24.40;14.07;;;6.80;99.90;;;;;;4892124;29;20036;-69
2021/04/18 00:38:01;;;;;;;21.83;14.30;;;6.70;99.90;;;;;;4893109;28;20128;-69
2021/04/18 00:40:27;;;;;;;24.52;13.77;;;6.70;99.90;;;;;;4893022;28;20079;-69
2021/04/18 00:42:53;;;;;;;28.00;14.75;;;6.70;99.90;;;;;;4891469;28;20405;-69
2021/04/18 00:45:21;;;;;;;27.13;16.17;;;6.70;99.90;;;;;;4893030;29;20381;-69
2021/04/18 00:47:50;;;;;;;24.20;14.32;;;6.70;99.90;;;;;;4892980;28;20028;-69
2021/04/18 00:50:22;;;;;;;27.35;14.13;;;6.70;99.90;;;;;;4893151;29;20460;-68
2021/04/18 00:52:48;;;;;;;20.08;12.82;;;6.80;99.90;;;;;;4892728;28;20033;-68
2021/04/18 00:55:14;;;;;;;20.75;12.80;;;6.80;99.90;;;;;;4892980;29;20087;-69
2021/04/18 00:57:39;;;;;;;22.65;13.93;;;6.80;99.90;;;;;;4891812;28;20033;-69
2021/04/18 01:00:06;;;;;;;25.58;14.13;;;6.90;99.90;;;;;;4892622;28;20484;-69
2021/04/18 01:02:32;;;;;;;21.83;13.27;;;6.80;99.90;;;;;;4891443;29;20032;-68
2021/04/18 01:04:58;;;;;;;20.48;13.05;;;6.80;99.90;;;;;;4892745;29;20075;-69
2021/04/18 01:07:23;;;;;;;22.50;12.90;;;6.70;99.90;;;;;;4892738;29;20123;-69
2021/04/18 01:09:50;;;;;;;24.88;14.57;;;6.70;99.90;;;;;;4892716;29;20144;-69
2021/04/18 01:12:15;;;;;;;18.95;12.65;;;6.60;99.90;;;;;;4892737;28;20029;-69
2021/04/18 01:14:42;;;;;;;23.88;13.77;;;6.60;99.90;;;;;;4892684;28;20606;-69
2021/04/18 01:17:07;;;;;;;24.33;14.30;;;6.50;99.90;;;;;;4892727;28;20079;-69
2021/04/18 01:19:33;;;;;;;22.95;13.63;;;6.60;99.90;;;;;;4891398;28;20145;-69
2021/04/18 01:21:58;;;;;;;21.50;12.73;;;6.60;99.90;;;;;;4892467;28;20040;-69
2021/04/18 01:24:25;;;;;;;21.33;13.15;;;6.70;99.90;;;;;;4892736;28;20355;-69
2021/04/18 01:26:51;;;;;;;23.23;13.88;;;6.70;99.90;;;;;;4892742;28;20029;-69
2021/04/18 01:29:17;;;;;;;26.17;13.52;;;6.60;99.90;;;;;;4892401;28;20056;-69
2021/04/18 01:31:42;;;;;;;23.10;12.93;;;6.40;99.90;;;;;;4892388;28;20068;-69
2021/04/18 01:34:12;;;;;;;20.10;13.65;;;6.40;99.90;;;;;;4892795;29;20029;-69
2021/04/18 01:36:39;;;;;;;24.30;14.70;;;6.40;99.90;;;;;;4894672;28;20029;-69
2021/04/18 01:39:05;;;;;;;25.38;14.25;;;6.40;99.90;;;;;;4895646;28;20037;-69
2021/04/18 01:41:31;;;;;;;22.13;13.38;;;6.50;99.90;;;;;;4895247;29;20107;-69
2021/04/18 01:43:57;;;;;;;24.33;12.90;;;6.70;99.90;;;;;;4894229;28;20171;-69
2021/04/18 01:46:22;;;;;;;23.95;13.02;;;6.70;99.90;;;;;;4895403;28;20606;-69
2021/04/18 01:48:48;;;;;;;21.10;13.35;;;6.70;99.90;;;;;;4895443;28;20508;-69
2021/04/18 01:51:13;;;;;;;22.30;13.40;;;6.60;99.90;;;;;;4894139;29;20503;-68
2021/04/18 01:53:39;;;;;;;22.98;13.55;;;6.50;99.90;;;;;;4895693;29;20021;-69
2021/04/18 01:56:05;;;;;;;25.33;13.73;;;6.30;99.90;;;;;;4895753;28;20401;-68
2021/04/18 01:58:31;;;;;;;28.13;15.45;;;6.30;99.90;;;;;;4895173;28;20428;-69
2021/04/18 02:00:56;;;;;;;22.48;14.25;;;6.20;99.90;;;;;;4894173;28;20119;-69
2021/04/18 02:03:22;;;;;;;27.08;13.52;;;6.20;99.90;;;;;;4895327;29;20293;-69
2021/04/18 02:05:47;;;;;;;22.63;14.63;;;6.20;99.90;;;;;;4895173;28;20067;-69
2021/04/18 02:08:13;;;;;;;26.20;14.55;;;6.10;99.90;;;;;;4894940;29;20120;-68
2021/04/18 02:10:38;;;;;;;25.70;15.85;;;6.10;99.90;;;;;;4895088;29;20400;-69
2021/04/18 02:13:04;;;;;;;24.48;14.60;;;6.00;99.90;;;;;;4894825;28;20474;-68
2021/04/18 02:15:29;;;;;;;22.90;14.35;;;6.20;99.90;;;;;;4895104;28;20032;-69
2021/04/18 02:17:55;;;;;;;22.85;14.35;;;6.10;99.90;;;;;;4895030;29;20029;-69
2021/04/18 02:20:21;;;;;;;23.50;14.75;;;6.00;99.90;;;;;;4894949;28;20130;-69
2021/04/18 02:22:46;;;;;;;24.45;13.93;;;6.00;99.90;;;;;;4894782;28;20483;-69
2021/04/18 02:25:13;;;;;;;22.38;13.35;;;6.00;99.90;;;;;;4893736;29;20455;-69
2021/04/18 02:27:40;;;;;;;24.42;13.25;;;6.10;99.90;;;;;;4894819;28;20032;-69
2021/04/18 02:30:07;;;;;;;25.83;14.48;;;6.10;99.90;;;;;;4894828;29;20071;-68
2021/04/18 02:32:33;;;;;;;24.35;14.65;;;6.10;99.90;;;;;;4894617;28;20072;-69
2021/04/18 02:34:59;;;;;;;26.98;15.05;;;6.10;99.90;;;;;;4894851;29;20028;-69
2021/04/18 02:37:25;;;;;;;22.10;13.75;;;6.10;99.90;;;;;;4894867;28;20506;-69
2021/04/18 02:39:50;;;;;;;22.50;13.95;;;6.10;99.90;;;;;;4894673;29;20028;-68
2021/04/18 02:42:16;;;;;;;27.15;15.15;;;6.10;99.90;;;;;;4893853;29;20345;-69
2021/04/18 02:44:42;;;;;;;25.25;13.82;;;6.10;99.90;;;;;;4894821;29;20039;-69
2021/04/18 02:47:07;;;;;;;22.13;14.75;;;6.10;99.90;;;;;;4894542;28;20037;-69
2021/04/18 02:49:33;;;;;;;24.95;14.50;;;6.30;99.90;;;;;;4894682;29;20514;-68
2021/04/18 02:51:58;;;;;;;23.40;14.00;;;6.30;99.90;;;;;;4894702;28;20025;-69
2021/04/18 02:54:24;;;;;;;26.77;13.85;;;6.30;99.90;;;;;;4894449;29;20029;-69
2021/04/18 02:56:50;;;;;;;20.73;12.05;;;6.20;99.90;;;;;;4894744;29;20028;-69
2021/04/18 02:59:15;;;;;;;22.67;13.52;;;6.20;99.90;;;;;;4894309;29;20032;-69
2021/04/18 03:01:41;;;;;;;21.35;12.65;;;6.20;99.90;;;;;;4894218;28;20400;-69
2021/04/18 03:04:07;;;;;;;28.02;14.02;;;6.20;99.90;;;;;;4894358;28;20056;-69
2021/04/18 03:06:34;;;;;;;23.05;13.50;;;6.20;99.90;;;;;;4894372;28;20063;-69
2021/04/18 03:08:59;;;;;;;24.30;14.43;;;6.10;99.90;;;;;;4894170;28;20032;-68
2021/04/18 03:11:25;;;;;;;25.23;13.60;;;6.10;99.90;;;;;;4892778;28;20064;-69
2021/04/18 03:13:51;;;;;;;28.08;14.52;;;6.00;99.90;;;;;;4894288;29;20538;-69
2021/04/18 03:16:16;;;;;;;26.42;15.32;;;6.00;99.90;;;;;;4894323;28;20038;-68
2021/04/18 03:18:42;;;;;;;26.33;15.02;;;5.80;99.90;;;;;;4894042;28;20035;-68
2021/04/18 03:21:07;;;;;;;31.90;15.88;;;5.80;99.90;;;;;;4894226;28;20024;-69
2021/04/18 03:23:33;;;;;;;26.25;14.60;;;5.80;99.90;;;;;;4893962;28;20024;-69
2021/04/18 03:25:59;;;;;;;24.63;14.98;;;5.70;99.90;;;;;;4894142;29;20471;-68
2021/04/18 03:28:24;;;;;;;22.42;13.57;;;5.80;99.90;;;;;;4893902;28;20032;-69
2021/04/18 03:30:51;;;;;;;23.90;14.75;;;5.80;99.90;;;;;;4894033;29;20024;-68
2021/04/18 03:33:17;;;;;;;20.30;13.15;;;5.90;99.90;;;;;;4893651;28;20087;-68
2021/04/18 03:35:43;;;;;;;23.50;13.57;;;6.00;99.90;;;;;;4894015;28;20029;-69
2021/04/18 03:38:09;;;;;;;26.35;14.05;;;6.10;99.90;;;;;;4893817;29;20025;-69
2021/04/18 03:40:36;;;;;;;24.30;13.63;;;6.10;99.90;;;;;;4893878;28;20063;-69
2021/04/18 03:43:02;;;;;;;24.75;13.30;;;6.00;99.90;;;;;;4893528;29;20028;-69
2021/04/18 03:45:27;;;;;;;25.02;14.63;;;5.90;99.90;;;;;;4893799;29;20033;-69
2021/04/18 03:47:53;;;;;;;21.45;14.07;;;5.90;99.90;;;;;;4892401;28;20443;-69
2021/04/18 03:50:18;;;;;;;23.67;13.93;;;5.90;99.90;;;;;;4893631;28;20102;-68
2021/04/18 03:52:44;;;;;;;22.77;13.00;;;5.80;99.90;;;;;;4893560;28;20040;-69
2021/04/18 03:55:11;;;;;;;24.77;13.68;;;5.80;99.90;;;;;;4893881;28;20472;-68
2021/04/18 03:57:37;;;;;;;25.38;14.25;;;5.70;99.90;;;;;;4892914;28;20029;-68
2021/04/18 04:00:05;;;;;;;22.67;14.02;;;5.70;99.90;;;;;;4893537;28;20048;-69
2021/04/18 04:02:30;;;;;;;22.67;13.45;;;5.80;99.90;;;;;;4891978;28;20039;-69
2021/04/18 04:04:56;;;;;;;22.83;13.43;;;5.90;99.90;;;;;;4893587;29;20224;-69
2021/04/18 04:07:21;;;;;;;24.02;13.48;;;6.00;99.90;;;;;;4893392;29;20035;-69
2021/04/18 04:09:47;;;;;;;22.02;13.68;;;6.00;99.90;;;;;;4892107;29;20382;-69
2021/04/18 04:12:12;;;;;;;23.08;13.35;;;6.00;99.90;;;;;;4893230;29;20033;-68
2021/04/18 04:14:38;;;;;;;21.10;12.65;;;6.00;99.90;;;;;;4892165;29;20049;-69
2021/04/18 04:17:04;;;;;;;41.75;21.55;;;6.10;99.90;;;;;;4893418;28;20040;-69
2021/04/18 04:19:29;;;;;;;38.33;20.88;;;6.00;99.90;;;;;;4893483;28;20060;-69
2021/04/18 04:21:55;;;;;;;24.27;14.02;;;6.10;99.90;;;;;;4893045;28;20033;-69
2021/04/18 04:24:21;;;;;;;23.98;13.88;;;6.10;99.90;;;;;;4893311;28;20398;-68
2021/04/18 04:26:46;;;;;;;24.63;14.32;;;6.00;99.90;;;;;;4893150;29;20043;-69
2021/04/18 04:29:12;;;;;;;24.90;13.80;;;6.00;99.90;;;;;;4892971;29;20503;-68
2021/04/18 04:31:37;;;;;;;26.02;13.98;;;6.00;99.90;;;;;;4893003;29;20045;-68
2021/04/18 04:34:03;;;;;;;24.65;13.88;;;6.00;99.90;;;;;;4892999;29;20028;-69
2021/04/18 04:36:29;;;;;;;23.23;13.52;;;6.00;99.90;;;;;;4893423;29;20039;-69
2021/04/18 04:38:54;;;;;;;24.98;15.07;;;6.00;99.90;;;;;;4893394;29;20039;-69
2021/04/18 04:41:20;;;;;;;26.00;14.63;;;6.10;99.90;;;;;;4893144;28;20040;-69
2021/04/18 04:43:46;;;;;;;25.27;14.57;;;6.00;99.90;;;;;;4892235;29;20029;-69
2021/04/18 04:46:12;;;;;;;28.50;15.88;;;6.00;99.90;;;;;;4893389;28;20520;-68
2021/04/18 04:48:38;;;;;;;24.42;13.63;;;6.00;99.90;;;;;;4893294;29;20534;-68
2021/04/18 04:51:04;;;;;;;27.08;15.50;;;6.00;99.90;;;;;;4893308;29;20495;-69
2021/04/18 04:53:29;;;;;;;26.40;15.20;;;6.10;99.90;;;;;;4893093;29;20028;-69
2021/04/18 04:55:55;;;;;;;25.52;14.80;;;6.10;99.90;;;;;;4893147;29;20021;-69
2021/04/18 04:58:21;;;;;;;26.25;13.57;;;6.20;99.90;;;;;;4892926;29;20051;-69
2021/04/18 05:00:46;;;;;;;25.42;14.57;;;6.30;99.90;;;;;;4891825;29;20503;-68
2021/04/18 05:03:12;;;;;;;28.50;16.13;;;6.20;99.90;;;;;;4892854;29;20033;-68
2021/04/18 05:05:37;;;;;;;27.00;16.00;;;6.20;99.90;;;;;;4892947;29;20041;-68
2021/04/18 05:08:03;;;;;;;30.58;16.77;;;6.20;99.90;;;;;;4892837;28;20373;-68
2021/04/18 05:10:29;;;;;;;27.60;15.32;;;6.20;99.90;;;;;;4896172;29;20025;-68
2021/04/18 05:12:54;;;;;;;23.77;14.25;;;6.30;99.90;;;;;;4895930;29;20080;-68
2021/04/18 05:15:23;;;;;;;31.15;16.42;;;6.30;99.90;;;;;;4896080;29;20416;-69
2021/04/18 05:17:51;;;;;;;27.15;15.55;;;6.50;99.90;;;;;;4896015;29;20304;-68
2021/04/18 05:20:20;;;;;;;25.42;15.10;;;6.70;99.90;;;;;;4896261;29;20099;-69
2021/04/18 05:22:46;;;;;;;25.90;15.20;;;6.70;99.90;;;;;;4894543;29;20025;-69
2021/04/18 05:25:14;;;;;;;26.15;14.50;;;6.70;99.90;;;;;;4895898;29;20063;-68
2021/04/18 05:27:42;;;;;;;25.02;14.80;;;6.70;99.90;;;;;;4895660;29;20028;-69
2021/04/18 05:30:09;;;;;;;25.50;14.50;;;6.80;99.90;;;;;;4895518;29;20044;-69
2021/04/18 05:32:35;;;;;;;23.60;15.77;;;6.80;99.90;;;;;;4895367;29;20029;-69
2021/04/18 05:35:01;;;;;;;22.15;13.80;;;6.90;99.90;;;;;;4895666;28;20033;-69
2021/04/18 05:37:26;;;;;;;24.67;14.63;;;6.80;99.90;;;;;;4895991;29;20028;-69
2021/04/18 05:39:52;;;;;;;25.15;15.43;;;6.80;99.90;;;;;;4895944;29;20351;-75
2021/04/18 05:42:18;;;;;;;27.45;15.82;;;6.90;99.90;;;;;;4895824;29;20037;-69
2021/04/18 05:44:43;;;;;;;22.08;14.32;;;6.90;99.90;;;;;;4895583;28;20032;-69
2021/04/18 05:47:12;;;;;;;23.08;14.18;;;6.80;99.90;;;;;;4895468;28;20039;-69
2021/04/18 05:49:37;;;;;;;24.10;14.43;;;6.90;99.90;;;;;;4895434;28;20029;-69
2021/04/18 05:52:03;;;;;;;23.15;14.05;;;6.90;99.90;;;;;;4895342;29;20024;-69
2021/04/18 05:54:29;;;;;;;24.63;14.80;;;6.90;99.90;;;;;;4895474;28;20048;-69
2021/04/18 05:56:54;;;;;;;26.88;13.80;;;7.00;99.90;;;;;;4895374;29;20032;-69
2021/04/18 05:59:20;;;;;;;23.08;14.57;;;7.10;99.90;;;;;;4895125;28;20095;-69
2021/04/18 06:01:46;;;;;;;24.83;15.18;;;6.90;99.90;;;;;;4895027;29;20028;-69
2021/04/18 06:04:11;;;;;;;24.42;15.18;;;6.90;99.90;;;;;;4895225;28;20088;-69
2021/04/18 06:06:37;;;;;;;25.58;14.65;;;6.90;99.90;;;;;;4895191;28;20037;-69
2021/04/18 06:09:03;;;;;;;26.67;16.08;;;6.90;99.90;;;;;;4895163;29;20028;-69
2021/04/18 06:11:29;;;;;;;23.75;14.55;;;6.90;99.90;;;;;;4894881;28;20119;-69
2021/04/18 06:13:54;;;;;;;24.08;14.93;;;7.00;99.90;;;;;;4895147;28;20101;-69
2021/04/18 06:16:20;;;;;;;29.58;16.73;;;7.10;99.90;;;;;;4895162;28;20033;-69
2021/04/18 06:18:46;;;;;;;27.48;16.77;;;7.20;99.90;;;;;;4895101;28;20036;-69
2021/04/18 06:21:12;;;;;;;23.98;14.93;;;7.30;99.90;;;;;;4893009;28;20056;-69
2021/04/18 06:23:37;;;;;;;23.25;14.50;;;7.30;99.90;;;;;;4894862;28;20079;-70
2021/04/18 06:26:03;;;;;;;28.13;15.57;;;7.40;99.90;;;;;;4894927;28;20049;-70
2021/04/18 06:28:29;;;;;;;25.67;15.43;;;7.30;99.90;;;;;;4894697;28;20060;-70
2021/04/18 06:30:54;;;;;;;27.40;16.55;;;7.30;99.90;;;;;;4893750;29;20054;-69
2021/04/18 06:33:20;;;;;;;25.63;15.07;;;7.40;99.90;;;;;;4894611;29;20103;-70
2021/04/18 06:35:46;;;;;;;25.40;15.27;;;7.50;99.90;;;;;;4894820;28;20024;-69
2021/04/18 06:38:12;;;;;;;23.23;14.55;;;7.60;99.90;;;;;;4894739;28;20032;-69
2021/04/18 06:40:38;;;;;;;25.20;14.93;;;7.60;99.90;;;;;;4894731;29;20025;-69
2021/04/18 06:43:08;;;;;;;27.35;15.93;;;7.70;99.90;;;;;;4890243;29;20029;-71
2021/04/18 06:45:34;;;;;;;25.33;16.00;;;7.90;99.90;;;;;;4886223;28;20033;-70
2021/04/18 06:48:01;;;;;;;26.55;16.70;;;8.20;99.90;;;;;;4894429;29;20107;-70
2021/04/18 06:50:27;;;;;;;29.63;17.17;;;8.30;99.90;;;;;;4894764;29;20025;-70
2021/04/18 06:52:52;;;;;;;24.08;14.70;;;8.40;99.90;;;;;;4903718;29;20506;-70
2021/04/18 06:55:18;;;;;;;24.10;15.20;;;8.70;99.90;;;;;;4968739;28;20035;-70
2021/04/18 06:57:44;;;;;;;27.00;15.43;;;8.80;99.90;;;;;;4902317;29;20029;-70
2021/04/18 07:00:11;;;;;;;25.42;14.18;;;9.00;99.90;;;;;;4903971;29;20051;-70
2021/04/18 07:02:37;;;;;;;26.13;14.25;;;9.30;99.90;;;;;;4899260;28;20402;-69
2021/04/18 07:05:09;;;;;;;25.45;13.65;;;9.50;99.90;;;;;;4904305;29;20074;-70
2021/04/18 07:07:37;;;;;;;23.52;13.10;;;9.80;99.90;;;;;;4903214;29;20028;-70
2021/04/18 07:10:05;;;;;;;24.27;13.77;;;9.90;99.90;;;;;;4907508;28;20031;-70
2021/04/18 07:12:32;;;;;;;24.30;13.93;;;9.90;99.90;;;;;;4912847;29;20074;-70
2021/04/18 07:14:59;;;;;;;22.88;15.18;;;9.90;99.90;;;;;;4912997;28;20028;-70
2021/04/18 07:17:25;;;;;;;26.92;15.45;;;9.80;99.90;;;;;;4913029;29;20147;-70
2021/04/18 07:20:13;;;;;;;33.13;15.95;;;9.90;99.90;;;;;;4912932;29;20075;-70
2021/04/18 07:22:39;;;;;;;43.65;20.67;;;10.00;99.90;;;;;;4912598;29;20028;-70
2021/04/18 07:25:06;;;;;;;34.22;18.75;;;10.00;99.90;;;;;;4912822;29;20039;-70
2021/04/18 07:27:52;;;;;;;35.25;17.73;;;10.10;99.90;;;;;;4912793;29;20056;-70
2021/04/18 07:30:23;;;;;;;36.78;18.90;;;10.20;99.90;;;;;;4913184;29;20225;-70
2021/04/18 07:33:07;;;;;;;37.78;18.17;;;10.10;99.90;;;;;;4911220;28;20036;-70
2021/04/18 07:35:41;;;;;;;45.45;21.48;;;10.10;99.90;;;;;;4923465;28;20056;-70
2021/04/18 07:38:24;;;;;;;36.35;19.90;;;10.10;99.90;;;;;;4893795;28;20052;-70
2021/04/18 07:40:52;;;;;;;42.53;19.42;;;10.10;99.90;;;;;;4893775;28;20111;-70
2021/04/18 07:43:18;;;;;;;37.95;19.15;;;10.20;99.90;;;;;;4893839;28;20403;-70
2021/04/18 07:45:49;;;;;;;40.15;19.02;;;10.30;99.90;;;;;;4893747;29;20020;-70
2021/04/18 07:48:17;;;;;;;39.10;21.02;;;10.30;99.90;;;;;;4892299;28;20029;-70
2021/04/18 07:50:45;;;;;;;35.85;18.92;;;10.20;99.90;;;;;;4893902;28;20483;-71
2021/04/18 07:53:18;;;;;;;31.67;18.02;;;10.40;99.90;;;;;;4893492;28;20151;-71
2021/04/18 07:55:44;;;;;;;29.23;17.70;;;10.50;99.90;;;;;;4893569;28;20499;-70
2021/04/18 07:58:11;;;;;;;34.38;20.30;;;10.50;99.90;;;;;;4893502;29;20141;-70
2021/04/18 08:00:36;;;;;;;34.90;18.58;;;10.50;99.90;;;;;;4893720;28;20025;-70
2021/04/18 08:03:02;;;;;;;30.88;17.77;;;10.50;99.90;;;;;;4895865;28;20029;-71
2021/04/18 08:05:33;;;;;;;37.28;19.48;;;10.60;99.90;;;;;;4898350;28;20051;-71
2021/04/18 08:07:59;;;;;;;;;;;10.50;99.90;;;;;;4893772;28;20032;-71
2021/04/18 08:10:33;;;;;;;35.13;18.27;;;10.40;99.90;;;;;;4893390;28;19914;-71
2021/04/18 08:13:18;;;;;;;32.42;19.33;;;10.30;99.90;;;;;;4957769;28;20036;-71
2021/04/18 08:16:04;;;;;;;29.98;17.90;;;10.20;99.90;;;;;;4893365;28;20097;-70
2021/04/18 08:18:33;;;;;;;34.90;19.05;;;10.10;99.90;;;;;;4957902;28;20111;-71
2021/04/18 08:21:00;;;;;;;33.38;19.10;;;10.10;99.90;;;;;;4893506;28;20115;-70
2021/04/18 08:23:40;;;;;;;32.28;19.20;;;10.20;99.90;;;;;;4893554;28;20373;-70
2021/04/18 08:26:11;;;;;;;36.38;20.52;;;10.00;99.90;;;;;;4957749;28;20028;-70
2021/04/18 08:28:55;;;;;;;37.60;19.60;;;10.10;99.90;;;;;;4893341;28;20036;-70
2021/04/18 08:31:24;;;;;;;39.65;20.73;;;10.00;99.90;;;;;;4892949;29;20261;-71
2021/04/18 08:33:53;;;;;;;35.87;19.53;;;9.90;99.90;;;;;;4893139;29;20024;-71
2021/04/18 08:36:24;;;;;;;35.63;19.05;;;10.00;99.90;;;;;;4957715;28;20024;-71
2021/04/18 08:39:13;;;;;;;37.10;19.02;;;9.90;99.90;;;;;;4944929;28;20028;-70
2021/04/18 08:41:47;;;;;;;37.33;20.65;;;9.90;99.90;;;;;;4892816;28;20105;-69
2021/04/18 08:44:26;;;;;;;35.55;20.25;;;9.90;99.90;;;;;;4894612;29;20363;-70
2021/04/18 08:46:59;;;;;;;43.13;22.03;;;10.10;99.90;;;;;;4892985;28;20547;-70
2021/04/18 08:49:41;;;;;;;36.28;20.13;;;10.10;99.90;;;;;;4896374;28;20269;-71
2021/04/18 08:52:23;;;;;;;42.03;23.73;;;10.20;99.90;;;;;;4961026;28;20031;-71
2021/04/18 08:54:51;;;;;;;39.28;20.42;;;10.30;99.90;;;;;;4896725;28;20021;-70
2021/04/18 08:57:22;;;;;;;40.45;21.08;;;10.30;99.90;;;;;;4896464;28;20033;-70
2021/04/18 09:00:13;;;;;;;42.85;21.98;;;10.20;99.90;;;;;;4961899;28;20602;-70
2021/04/18 09:02:38;;;;;;;38.72;20.30;;;10.10;99.90;;;;;;4900746;28;20123;-70
2021/04/18 09:05:09;;;;;;;38.17;18.98;;;10.10;99.90;;;;;;4895448;29;20221;-70
2021/04/18 09:07:39;;;;;;;41.03;21.17;;;10.20;99.90;;;;;;4959976;28;20487;-70
2021/04/18 09:10:08;;;;;;;36.78;19.67;;;10.20;99.90;;;;;;4895654;28;20490;-70
2021/04/18 09:12:34;;;;;;;36.72;20.73;;;10.20;99.90;;;;;;4895516;28;20084;-71
2021/04/18 09:15:00;;;;;;;42.75;20.17;;;10.30;99.90;;;;;;4895425;29;20028;-70
2021/04/18 09:17:31;;;;;;;36.38;19.30;;;10.30;99.90;;;;;;4895529;29;20033;-71
2021/04/18 09:20:00;;;;;;;32.97;19.80;;;10.20;99.90;;;;;;4895677;28;20037;-70
2021/04/18 09:22:35;;;;;;;33.50;18.80;;;10.10;99.90;;;;;;4895787;29;20029;-72
2021/04/18 09:25:09;;;;;;;37.60;19.50;;;10.00;99.90;;;;;;4895953;29;20040;-70
2021/04/18 09:27:40;;;;;;;35.63;18.02;;;9.90;99.90;;;;;;4895776;29;20032;-70
2021/04/18 09:30:15;;;;;;;34.92;20.00;;;9.90;99.90;;;;;;4895811;28;20369;-70
2021/04/18 09:32:44;;;;;;;32.05;20.00;;;10.00;99.90;;;;;;4895535;28;20025;-71
2021/04/18 09:35:11;;;;;;;41.45;20.58;;;10.00;99.90;;;;;;4895727;29;20028;-70
2021/04/18 09:37:40;;;;;;;34.58;20.50;;;10.10;99.90;;;;;;4895635;28;20033;-70
2021/04/18 09:40:18;;;;;;;36.55;20.95;;;10.20;99.90;;;;;;4895564;28;20578;-70
2021/04/18 09:42:47;;;;;;;32.85;20.35;;;10.30;99.90;;;;;;4895583;29;20056;-70
2021/04/18 09:45:17;;;;;;;38.08;21.52;;;10.40;99.90;;;;;;4895477;29;20032;-70
2021/04/18 09:47:47;;;;;;;37.35;20.73;;;10.50;99.90;;;;;;4895444;29;20032;-70
2021/04/18 09:50:18;;;;;;;;;;;10.50;99.90;;;;;;4895903;29;20075;-70
2021/04/18 09:52:45;;;;;;;36.10;20.50;;;10.50;99.90;;;;;;4895291;29;20291;-70
2021/04/18 09:55:25;;;;;;;34.15;21.13;;;10.50;99.90;;;;;;4959264;28;20059;-70
2021/04/18 09:58:00;;;;;;;37.10;21.70;;;10.50;99.90;;;;;;4895821;29;20135;-70
2021/04/18 10:00:29;;;;;;;33.65;21.10;;;10.50;99.90;;;;;;4895318;28;20047;-70
2021/04/18 10:03:13;;;;;;;38.05;21.58;;;10.40;99.90;;;;;;4895031;29;20456;-70
2021/04/18 10:05:45;;;;;;;40.55;21.77;;;10.30;99.90;;;;;;4895253;29;20480;-70
2021/04/18 10:08:22;;;;;;;42.17;21.23;;;10.40;99.90;;;;;;4894856;29;20025;-70
2021/04/18 10:10:50;;;;;;;38.08;21.60;;;10.20;99.90;;;;;;4895191;29;20024;-70
2021/04/18 10:13:35;;;;;;;39.50;22.05;;;10.20;99.90;;;;;;4894765;29;20423;-70
2021/04/18 10:16:04;;;;;;;45.13;22.92;;;10.30;99.90;;;;;;4895245;29;20464;-70
2021/04/18 10:18:30;;;;;;;44.20;24.90;;;10.20;99.90;;;;;;4894984;29;20043;-70
2021/04/18 10:21:15;;;;;;;46.13;22.88;;;10.30;99.90;;;;;;4894906;29;20036;-70
2021/04/18 10:23:41;;;;;;;44.33;24.13;;;10.30;99.90;;;;;;4894896;29;20479;-70
2021/04/18 10:26:07;;;;;;;45.88;23.85;;;10.20;99.90;;;;;;4895019;28;20456;-70
2021/04/18 10:28:32;;;;;;;44.03;24.15;;;10.10;99.90;;;;;;4894871;29;20063;-70
2021/04/18 10:30:58;;;;;;;41.05;22.10;;;10.00;99.90;;;;;;4894952;29;20423;-70
2021/04/18 10:33:23;;;;;;;43.83;24.80;;;10.00;99.90;;;;;;4894510;29;20499;-70
2021/04/18 10:35:49;;;;;;;44.83;24.33;;;10.20;99.90;;;;;;4894811;29;20033;-70
2021/04/18 10:38:14;;;;;;;40.78;23.92;;;10.20;99.90;;;;;;4894684;29;20029;-70
2021/04/18 10:40:40;;;;;;;39.38;23.13;;;10.30;99.90;;;;;;4894644;29;20032;-70
2021/04/18 10:43:09;;;;;;;44.97;22.80;;;10.50;99.90;;;;;;4894438;29;20035;-70
2021/04/18 10:45:35;;;;;;;42.47;22.58;;;10.60;99.90;;;;;;4959279;28;20033;-70
2021/04/18 10:48:00;;;;;;;37.90;22.58;;;10.70;99.90;;;;;;4894643;29;20039;-70
2021/04/18 10:50:26;;;;;;;40.42;22.60;;;10.70;99.90;;;;;;4894725;29;20107;-70
2021/04/18 10:52:51;;;;;;;40.75;20.98;;;10.60;99.90;;;;;;4959354;28;20029;-70
2021/04/18 10:55:17;;;;;;;39.53;23.55;;;10.60;99.90;;;;;;4895140;29;20107;-70
2021/04/18 10:57:42;;;;;;;37.53;22.08;;;10.60;99.90;;;;;;4894769;29;20452;-70
2021/04/18 11:00:09;;;;;;;39.38;22.88;;;10.50;99.90;;;;;;4894649;29;20067;-70
2021/04/18 11:02:34;;;;;;;37.65;21.40;;;10.50;99.90;;;;;;4894627;29;20056;-70
2021/04/18 11:05:01;;;;;;;37.20;22.20;;;10.50;99.90;;;;;;4894977;29;20140;-70
2021/04/18 11:07:26;;;;;;;36.85;21.05;;;10.60;99.90;;;;;;4958867;28;20119;-70
2021/04/18 11:09:52;;;;;;;33.72;21.55;;;10.60;99.90;;;;;;4894064;29;20519;-70
2021/04/18 11:12:19;;;;;;;37.28;23.52;;;10.60;99.90;;;;;;4894211;29;20028;-70
2021/04/18 11:14:45;;;;;;;38.88;23.77;;;10.50;99.90;;;;;;4894364;29;20468;-70
2021/04/18 11:17:11;;;;;;;37.65;22.55;;;10.40;99.90;;;;;;4959063;28;20588;-70
2021/04/18 11:19:36;;;;;;;35.28;20.70;;;10.40;99.90;;;;;;4935564;23;20021;-68
2021/04/18 11:22:02;;;;;;;35.90;21.35;;;10.50;99.90;;;;;;4912423;28;20060;-70
2021/04/18 11:24:28;;;;;;;36.13;21.65;;;10.60;99.90;;;;;;4913294;29;20070;-70
2021/04/18 11:26:53;;;;;;;36.35;20.95;;;10.70;99.90;;;;;;4912619;28;20490;-70
2021/04/18 11:29:19;;;;;;;39.60;21.52;;;10.70;99.90;;;;;;4912791;29;20028;-69
2021/04/18 11:31:45;;;;;;;34.70;21.17;;;10.70;99.90;;;;;;4977371;28;20074;-70
2021/04/18 11:34:11;;;;;;;36.90;21.55;;;10.70;99.90;;;;;;4977532;28;20025;-70
2021/04/18 11:36:37;;;;;;;37.97;21.67;;;10.70;99.90;;;;;;4977588;28;20029;-69
2021/04/18 11:39:03;;;;;;;39.45;22.38;;;10.60;99.90;;;;;;4977741;28;20077;-69
2021/04/18 11:41:34;;;;;;;36.33;21.42;;;10.60;99.90;;;;;;4912056;28;20043;-70
2021/04/18 11:44:01;;;;;;;38.13;21.58;;;10.50;99.90;;;;;;4912520;28;20028;-70
2021/04/18 11:46:27;;;;;;;38.05;20.83;;;10.60;99.90;;;;;;4977367;28;20036;-70
2021/04/18 11:48:54;;;;;;;39.88;22.25;;;10.50;99.90;;;;;;4977369;28;20031;-71
2021/04/18 11:51:20;;;;;;;37.65;21.83;;;10.30;99.90;;;;;;4911759;28;20028;-70
2021/04/18 11:53:46;;;;;;;40.22;21.58;;;10.30;99.90;;;;;;4977501;28;20493;-71
2021/04/18 11:56:12;;;;;;;40.28;21.95;;;10.30;99.90;;;;;;4912276;28;20386;-70
2021/04/18 11:58:38;;;;;;;39.65;21.88;;;10.20;99.90;;;;;;4977135;28;20025;-71
2021/04/18 12:01:04;;;;;;;37.25;21.65;;;10.20;99.90;;;;;;4912331;29;20028;-70
2021/04/18 12:03:29;;;;;;;41.55;22.40;;;10.30;99.90;;;;;;4911769;28;20024;-70
2021/04/18 12:05:56;;;;;;;39.58;23.00;;;10.30;99.90;;;;;;4912319;28;20111;-70
2021/04/18 12:08:22;;;;;;;40.25;21.60;;;10.50;99.90;;;;;;4912035;28;20043;-70
2021/04/18 12:10:47;;;;;;;36.38;20.95;;;10.70;99.90;;;;;;4912127;28;20024;-70
2021/04/18 12:13:14;;;;;;;38.13;21.48;;;10.80;99.90;;;;;;4976467;28;20028;-70
2021/04/18 12:15:40;;;;;;;36.67;21.83;;;10.70;99.90;;;;;;4912081;29;20031;-71
2021/04/18 12:18:06;;;;;;;37.95;21.88;;;10.60;99.90;;;;;;4911413;28;20024;-70
2021/04/18 12:20:31;;;;;;;38.35;22.38;;;10.50;99.90;;;;;;4909574;28;20036;-70
2021/04/18 12:22:57;;;;;;;39.38;22.65;;;10.40;99.90;;;;;;4911966;28;20513;-70
2021/04/18 12:25:23;;;;;;;37.47;22.80;;;10.50;99.90;;;;;;4912109;28;20115;-70
2021/04/18 12:27:48;;;;;;;37.78;22.88;;;10.60;99.90;;;;;;4912146;28;20103;-70
2021/04/18 12:30:14;;;;;;;41.33;21.88;;;10.70;99.90;;;;;;4977047;28;20051;-70
2021/04/18 12:32:42;;;;;;;41.10;24.02;;;10.80;99.90;;;;;;4976501;28;20074;-70
2021/04/18 12:35:08;;;;;;;34.05;21.52;;;10.80;99.90;;;;;;4911778;28;20410;-70